Time;durP1;ratioP1;P1;durP2;ratioP2;P2;SDS_P1;SDS_P2;PMS_P1;PMS_P2;Temp;Humidity;BMP_temperature;BMP_pressure;BME280_temperature;BME280_humidity;BME280_pressure;Samples;Min_cycle;Max_cycle;Signal;HPM_P1;HPM_P2
2022/07/01 00:00:53;;;;;;;5.07;3.88;;;;;;;21.09;73.23;64187.22;5042985;28;20208;-76
2022/07/01 00:03:20;;;;;;;4.35;4.05;;;;;;;21.04;72.47;64179.91;5045240;28;20239;-76
2022/07/01 00:05:47;;;;;;;3.75;3.38;;;;;;;21.04;72.21;64181.97;5045599;28;20195;-77
2022/07/01 00:08:13;;;;;;;3.83;3.47;;;;;;;20.97;73.10;64166.88;5049401;28;20435;-77
2022/07/01 00:10:42;;;;;;;5.30;3.70;;;;;;;20.95;72.93;64169.97;5048011;28;20251;-77
2022/07/01 00:13:09;;;;;;;4.22;3.83;;;;;;;20.92;72.40;64164.25;5046558;28;20218;-76
2022/07/01 00:15:35;;;;;;;9.02;3.92;;;;;;;20.94;72.58;64169.44;5044002;28;20251;-77
2022/07/01 00:18:03;;;;;;;4.70;4.15;;;;;;;20.97;73.61;64172.06;5042639;28;20259;-78
2022/07/01 00:20:30;;;;;;;3.90;3.58;;;;;;;20.97;74.05;64172.06;5044768;28;20377;-77
2022/07/01 00:22:57;;;;;;;5.40;4.03;;;;;;;20.92;74.16;64169.94;5044760;28;20226;-76
2022/07/01 00:25:24;;;;;;;4.03;3.83;;;;;;;20.94;75.09;64174.09;5046460;28;20193;-76
2022/07/01 00:27:52;;;;;;;4.10;3.80;;;;;;;20.92;75.61;64164.78;5048527;28;20283;-76
2022/07/01 00:30:19;;;;;;;6.05;3.33;;;;;;;20.97;75.87;64172.06;5049038;28;20229;-76
2022/07/01 00:32:46;;;;;;;4.03;3.75;;;;;;;20.94;75.88;64168.91;5045464;28;20221;-77
2022/07/01 00:35:13;;;;;;;3.83;3.53;;;;;;;20.96;76.02;64171.53;5044828;28;20244;-77
2022/07/01 00:37:40;;;;;;;5.22;3.55;;;;;;;20.85;78.41;64160.03;5043813;28;20406;-77
2022/07/01 00:40:09;;;;;;;5.40;4.22;;;;;;;20.85;78.90;64159.53;5045491;28;20227;-77
2022/07/01 00:42:41;;;;;;;4.57;4.07;;;;;;;20.87;78.04;64162.13;5028265;28;20644;-78
2022/07/01 00:45:10;;;;;;;5.10;4.38;;;;;;;20.82;79.29;64161.56;5043493;28;20185;-77
2022/07/01 00:47:38;;;;;;;4.28;3.58;;;;;;;20.70;80.14;64146.97;5041892;28;20240;-77
2022/07/01 00:50:08;;;;;;;4.15;3.85;;;;;;;20.65;80.33;64144.34;5043339;28;20204;-75
2022/07/01 00:52:35;;;;;;;4.72;3.67;;;;;;;20.70;78.91;64144.38;5044307;28;20233;-77
2022/07/01 00:55:04;;;;;;;6.05;4.18;;;;;;;20.67;80.38;64139.19;5041255;28;20197;-78
2022/07/01 00:57:32;;;;;;;5.90;4.45;;;;;;;20.62;80.94;64133.47;5042993;28;20283;-77
2022/07/01 00:59:59;;;;;;;5.18;3.90;;;;;;;20.62;81.12;64141.22;5040009;28;20410;-77
2022/07/01 01:02:27;;;;;;;7.55;4.07;;;;;;;20.55;83.61;64126.66;5043182;28;20213;-77
2022/07/01 01:04:54;;;;;;;5.38;3.90;;;;;;;20.44;85.98;64115.19;5040716;28;20435;-76
2022/07/01 01:07:21;;;;;;;4.32;3.85;;;;;;;20.39;86.60;64112.56;5043418;28;20240;-77
2022/07/01 01:09:48;;;;;;;5.07;3.85;;;;;;;20.29;87.38;64099.00;5043014;28;20244;-77
2022/07/01 01:12:15;;;;;;;5.22;4.45;;;;;;;20.32;84.95;64107.31;5041752;28;20236;-77
2022/07/01 01:14:46;;;;;;;4.75;4.35;;;;;;;20.29;85.92;64102.13;5045715;28;20201;-77
2022/07/01 01:17:13;;;;;;;4.82;4.50;;;;;;;20.25;87.03;64095.34;5049127;28;20217;-76
2022/07/01 01:19:42;;;;;;;4.97;4.60;;;;;;;20.26;87.80;64101.56;5047595;28;20196;-76
2022/07/01 01:22:12;;;;;;;4.70;4.30;;;;;;;20.20;89.77;64092.72;5039975;28;20221;-77
2022/07/01 01:24:39;;;;;;;4.85;4.28;;;;;;;20.15;90.28;64089.56;5042917;28;20540;-77
2022/07/01 01:27:06;;;;;;;5.90;4.20;;;;;;;20.05;90.87;64077.03;5041818;28;20304;-77
2022/07/01 01:29:33;;;;;;;4.22;3.85;;;;;;;19.99;90.30;64072.84;5043180;28;20440;-78
2022/07/01 01:32:00;;;;;;;6.63;4.43;;;;;;;20.03;90.31;64074.97;5041586;28;20197;-77
2022/07/01 01:34:27;;;;;;;7.65;4.28;;;;;;;19.98;91.44;64069.75;5042909;28;20264;-78
2022/07/01 01:36:54;;;;;;;5.38;4.88;;;;;;;19.98;91.51;64069.75;5042953;28;20190;-77
2022/07/01 01:39:22;;;;;;;5.45;4.75;;;;;;;19.93;92.09;64064.53;5034939;28;20521;-76
2022/07/01 01:41:49;;;;;;;4.93;4.40;;;;;;;19.92;92.39;64062.97;5042122;28;20201;-77
2022/07/01 01:44:16;;;;;;;4.90;4.50;;;;;;;19.93;92.75;64061.44;5043277;28;20402;-77
2022/07/01 01:46:43;;;;;;;4.75;4.35;;;;;;;19.92;91.79;64065.53;5042416;28;20283;-77
2022/07/01 01:49:10;;;;;;;6.95;4.88;;;;;;;19.81;93.87;64057.16;5040856;28;20273;-77
2022/07/01 01:51:37;;;;;;;4.93;4.50;;;;;;;19.71;93.54;64035.91;5042706;28;20216;-76
2022/07/01 01:54:05;;;;;;;4.75;4.32;;;;;;;19.73;94.38;64043.13;5042452;28;20410;-76
2022/07/01 01:56:33;;;;;;;5.13;4.82;;;;;;;19.70;94.63;64042.59;5041427;28;20362;-78
2022/07/01 01:59:00;;;;;;;6.43;4.80;;;;;;;19.67;93.87;64034.31;5040696;28;20556;-76
2022/07/01 02:01:27;;;;;;;4.97;4.57;;;;;;;19.73;93.63;64043.66;5041765;28;20295;-76
2022/07/01 02:03:54;;;;;;;5.28;4.88;;;;;;;19.72;93.29;64044.69;5042664;28;20285;-77
2022/07/01 02:06:22;;;;;;;5.68;5.28;;;;;;;19.71;93.10;64036.41;5040977;28;20207;-77
2022/07/01 02:08:49;;;;;;;4.90;4.57;;;;;;;19.75;92.20;64042.63;5042910;28;20217;-77
2022/07/01 02:11:16;;;;;;;7.30;4.80;;;;;;;19.74;92.66;64044.72;5043068;28;20201;-77
2022/07/01 02:13:45;;;;;;;5.22;4.82;;;;;;;19.76;92.32;64044.19;5042862;28;20236;-77
2022/07/01 02:16:12;;;;;;;5.55;5.10;;;;;;;19.77;92.29;64049.91;5042884;28;20212;-77
2022/07/01 02:18:39;;;;;;;7.28;4.93;;;;;;;19.77;92.32;64044.72;5049341;28;20275;-77
2022/07/01 02:21:06;;;;;;;5.15;4.70;;;;;;;19.77;92.87;64047.84;5046979;28;20309;-77
2022/07/01 02:23:34;;;;;;;6.00;4.72;;;;;;;19.76;92.44;64044.19;5043165;28;20222;-77
2022/07/01 02:26:01;;;;;;;5.13;4.75;;;;;;;19.71;93.89;64039.00;5044864;28;20197;-76
2022/07/01 02:28:27;;;;;;;4.93;4.53;;;;;;;19.69;94.60;64036.91;5045448;28;20229;-76
2022/07/01 02:30:56;;;;;;;6.75;5.03;;;;;;;19.70;94.73;64037.94;5046391;28;20434;-77
2022/07/01 02:33:23;;;;;;;5.78;5.03;;;;;;;19.67;96.08;64037.41;5045894;28;20228;-77
2022/07/01 02:35:50;;;;;;;6.47;5.60;;;;;;;19.65;95.92;64027.03;5044439;28;20197;-76
2022/07/01 02:38:17;;;;;;;5.65;5.25;;;;;;;19.62;95.70;64032.19;5045549;28;20235;-77
2022/07/01 02:40:44;;;;;;;5.90;5.40;;;;;;;19.53;95.74;64025.38;5046593;28;20410;-77
2022/07/01 02:43:10;;;;;;;7.28;4.95;;;;;;;19.58;96.17;64027.50;5044909;28;20301;-76
2022/07/01 02:45:37;;;;;;;5.90;5.40;;;;;;;19.53;95.88;64020.72;5046117;28;20239;-77
2022/07/01 02:48:06;;;;;;;5.15;4.75;;;;;;;19.56;95.75;64025.94;5045579;28;20422;-76
2022/07/01 02:50:33;;;;;;;5.03;4.63;;;;;;;19.41;97.44;64010.81;5046484;28;20201;-76
2022/07/01 02:53:00;;;;;;;6.07;5.50;;;;;;;19.42;98.70;64008.75;5045853;28;20411;-77
2022/07/01 02:55:28;;;;;;;5.38;4.97;;;;;;;19.45;97.79;64014.97;5047918;28;20251;-77
2022/07/01 02:57:56;;;;;;;5.70;5.20;;;;;;;19.41;97.51;64010.28;5047448;28;20248;-77
2022/07/01 03:00:23;;;;;;;5.10;4.70;;;;;;;19.45;96.63;64017.03;5047126;28;20223;-78
2022/07/01 03:02:50;;;;;;;6.00;4.63;;;;;;;19.46;96.89;64016.03;5045308;28;20221;-77
2022/07/01 03:05:18;;;;;;;6.30;5.60;;;;;;;19.42;97.64;64008.75;5045503;28;20393;-77
2022/07/01 03:07:45;;;;;;;8.07;5.03;;;;;;;19.37;97.74;64008.69;5045633;28;20516;-76
2022/07/01 03:10:12;;;;;;;4.72;4.07;;;;;;;19.42;97.55;64009.28;5045373;28;20212;-77
2022/07/01 03:12:40;;;;;;;5.03;4.68;;;;;;;19.43;97.31;64012.88;5044170;28;20217;-76
2022/07/01 03:15:09;;;;;;;7.18;5.63;;;;;;;19.45;97.03;64014.44;5046036;28;20253;-77
2022/07/01 03:17:38;;;;;;;6.95;5.18;;;;;;;19.54;96.75;64021.25;5044710;28;20278;-76
2022/07/01 03:20:06;;;;;;;5.20;4.80;;;;;;;19.54;96.76;64024.38;5045427;28;20209;-77
2022/07/01 03:22:34;;;;;;;6.53;5.13;;;;;;;19.65;96.38;64035.31;5045738;28;20372;-78
2022/07/01 03:25:02;;;;;;;5.22;4.82;;;;;;;19.65;96.87;64032.75;5045516;28;20212;-78
2022/07/01 03:27:30;;;;;;;5.32;4.93;;;;;;;19.74;97.48;64042.13;5044581;28;20229;-77
2022/07/01 03:29:57;;;;;;;7.32;4.70;;;;;;;19.80;96.74;64050.97;5043484;28;20217;-76
2022/07/01 03:32:25;;;;;;;5.70;5.20;;;;;;;19.88;96.69;64059.31;5044603;28;20217;-77
2022/07/01 03:34:53;;;;;;;5.70;5.20;;;;;;;19.84;97.26;64055.16;5044484;28;20220;-77
2022/07/01 03:37:21;;;;;;;6.55;6.00;;;;;;;19.88;98.12;64058.81;5043990;28;20549;-78
2022/07/01 03:39:50;;;;;;;4.75;4.40;;;;;;;19.93;98.42;64064.53;5044462;28;20273;-77
2022/07/01 03:42:17;;;;;;;5.53;5.22;;;;;;;20.01;98.67;64070.28;5053177;28;20525;-78
2022/07/01 03:44:45;;;;;;;5.40;5.00;;;;;;;20.03;98.65;64077.03;5051389;28;20240;-76
2022/07/01 03:47:12;;;;;;;5.70;5.15;;;;;;;20.17;97.72;64086.50;5043157;28;20275;-77
2022/07/01 03:49:38;;;;;;;5.43;4.72;;;;;;;20.20;96.66;64089.63;5044340;28;20510;-77
2022/07/01 03:52:06;;;;;;;5.60;5.10;;;;;;;20.28;96.47;64095.91;5045127;28;20221;-77
2022/07/01 03:54:38;;;;;;;4.68;4.28;;;;;;;20.41;94.97;64119.81;5044184;28;20197;-77
2022/07/01 03:57:08;;;;;;;5.72;4.80;;;;;;;20.55;93.68;64124.06;5043780;28;20426;-77
2022/07/01 03:59:38;;;;;;;4.40;4.07;;;;;;;20.62;92.63;64133.47;5044617;28;20213;-78
2022/07/01 04:02:06;;;;;;;11.43;5.45;;;;;;;20.81;90.43;64158.47;5044681;28;20221;-77
2022/07/01 04:04:35;;;;;;;4.60;4.40;;;;;;;20.93;88.81;64168.41;5043216;28;20216;-77
2022/07/01 04:07:04;;;;;;;5.32;4.50;;;;;;;21.00;87.94;64172.63;5044622;28;20204;-77
2022/07/01 04:09:32;;;;;;;4.55;4.22;;;;;;;21.06;87.67;64181.47;5044522;28;20562;-76
2022/07/01 04:11:59;;;;;;;6.45;3.72;;;;;;;21.14;84.44;64187.75;5044634;28;20260;-77
2022/07/01 04:14:27;;;;;;;4.90;4.50;;;;;;;21.21;83.02;64194.56;5044054;28;20408;-77
2022/07/01 04:16:54;;;;;;;5.80;4.95;;;;;;;21.05;82.71;64180.44;5043948;28;20193;-78
2022/07/01 04:19:21;;;;;;;4.40;4.10;;;;;;;21.02;86.74;64170.06;5044291;28;20232;-76
2022/07/01 04:24:33;;;;;;;4.70;4.20;;;;;;;21.06;83.31;64184.59;5043589;28;20681;-77
2022/07/01 04:27:01;;;;;;;5.57;4.32;;;;;;;21.00;84.50;64170.53;5044088;28;20260;-78
2022/07/01 04:29:30;;;;;;;4.60;4.38;;;;;;;20.94;84.03;64166.84;5046761;28;20260;-78
2022/07/01 04:31:57;;;;;;;5.80;4.97;;;;;;;21.02;83.25;64177.31;5044546;28;20194;-78
2022/07/01 04:34:24;;;;;;;4.57;4.18;;;;;;;21.15;83.01;64188.81;5043722;28;20197;-78
2022/07/01 04:36:52;;;;;;;11.35;4.50;;;;;;;21.31;81.30;64207.59;5045008;28;20189;-77
2022/07/01 04:39:19;;;;;;;7.28;4.30;;;;;;;21.39;81.50;64218.53;5048320;28;20193;-77
2022/07/01 04:42:01;;;;;;;8.40;4.80;;;;;;;21.44;80.26;64218.56;5046430;28;20383;-77
2022/07/01 04:44:31;;;;;;;4.38;4.05;;;;;;;21.56;78.78;64231.63;5044116;28;20193;-77
2022/07/01 04:46:59;;;;;;;4.75;4.45;;;;;;;21.69;79.32;64253.00;5043432;28;20201;-77
2022/07/01 04:49:26;;;;;;;4.68;4.40;;;;;;;21.70;79.39;64254.03;5042354;28;20263;-77
2022/07/01 04:51:53;;;;;;;9.68;5.15;;;;;;;21.83;81.78;64261.41;5041982;28;20232;-79
2022/07/01 04:54:20;;;;;;;11.52;4.97;;;;;;;21.72;84.53;64255.59;5044022;28;20197;-77
2022/07/01 04:56:48;;;;;;;7.45;5.65;;;;;;;21.70;86.23;64251.44;5032452;28;20198;-79
2022/07/01 04:59:16;;;;;;;7.20;5.90;;;;;;;21.73;87.86;64248.88;5043416;28;20232;-78
2022/07/01 05:01:45;;;;;;;5.05;4.70;;;;;;;21.68;86.29;64241.06;5041332;28;20264;-76
2022/07/01 05:04:13;;;;;;;12.45;6.10;;;;;;;21.83;87.17;64261.41;5043191;28;20193;-77
2022/07/01 05:06:40;;;;;;;6.32;5.72;;;;;;;21.96;86.47;64275.53;5046755;28;20216;-77
2022/07/01 05:09:07;;;;;;;9.20;5.75;;;;;;;22.03;86.83;64285.44;5046237;28;20237;-77
2022/07/01 05:11:34;;;;;;;9.63;5.88;;;;;;;22.28;84.18;64308.44;5045874;28;20223;-78
2022/07/01 05:14:01;;;;;;;6.50;5.93;;;;;;;22.25;85.44;64302.69;5043374;28;20221;-77
2022/07/01 05:16:28;;;;;;;6.22;5.65;;;;;;;22.33;85.41;64316.28;5042097;28;20197;-77
2022/07/01 05:22:00;;;;;;;11.27;5.90;;;;;;;22.60;82.80;64342.44;5043320;28;20212;-78
2022/07/01 05:24:30;;;;;;;6.28;5.78;;;;;;;22.63;82.38;64345.56;5044515;28;20197;-78
2022/07/01 05:26:57;;;;;;;6.65;6.03;;;;;;;22.64;80.65;64343.50;5047235;28;20205;-77
2022/07/01 05:29:24;;;;;;;13.52;6.80;;;;;;;22.63;79.91;64345.56;5046009;28;20264;-78
2022/07/01 05:31:51;;;;;;;7.35;5.97;;;;;;;22.54;81.96;64333.03;5039924;28;20225;-78
2022/07/01 05:34:20;;;;;;;10.93;5.93;;;;;;;22.63;80.76;64345.56;5025294;28;20206;-78
2022/07/01 05:36:46;;;;;;;11.20;6.13;;;;;;;22.67;80.30;64352.34;5038779;28;20482;-79
2022/07/01 05:39:13;;;;;;;6.45;5.93;;;;;;;22.61;80.62;64340.88;5042097;28;20216;-78
2022/07/01 05:41:40;;;;;;;6.65;6.05;;;;;;;22.83;80.35;64366.47;5044670;28;20197;-78
2022/07/01 05:44:07;;;;;;;7.03;6.10;;;;;;;22.92;79.11;64370.69;5044885;28;20224;-79
2022/07/01 05:46:34;;;;;;;8.82;6.25;;;;;;;23.04;79.29;64387.91;5044186;28;20201;-78
2022/07/01 05:49:01;;;;;;;6.15;5.53;;;;;;;23.23;80.25;64407.78;5033870;28;20541;-77
2022/07/01 05:51:30;;;;;;;8.02;6.35;;;;;;;23.16;79.19;64400.47;5044827;28;21246;-78
2022/07/01 05:53:57;;;;;;;10.57;6.65;;;;;;;23.31;79.93;64418.25;5043211;28;20220;-77
2022/07/01 05:56:25;;;;;;;8.65;6.43;;;;;;;23.35;79.50;64420.38;5043034;28;20204;-77
2022/07/01 05:58:52;;;;;;;13.55;6.65;;;;;;;23.31;79.74;64418.25;5037434;28;20221;-79
2022/07/01 06:01:19;;;;;;;10.73;6.15;;;;;;;23.23;80.93;64405.19;5051417;28;20264;-79
2022/07/01 06:03:46;;;;;;;6.85;6.13;;;;;;;23.48;78.59;64436.56;5050660;28;20221;-79
2022/07/01 06:06:13;;;;;;;7.45;6.63;;;;;;;23.44;77.86;64429.78;5046230;28;20236;-80
2022/07/01 06:08:41;;;;;;;9.80;6.22;;;;;;;23.50;78.30;64432.94;5049488;28;20229;-79
2022/07/01 06:11:08;;;;;;;10.52;7.10;;;;;;;23.61;74.71;64447.56;5050503;28;20193;-79
2022/07/01 06:13:35;;;;;;;10.65;6.00;;;;;;;23.82;74.52;64469.03;5050662;28;20410;-77
2022/07/01 06:16:02;;;;;;;9.77;6.75;;;;;;;23.75;72.61;64459.63;5040072;28;20194;-77
2022/07/01 06:18:29;;;;;;;11.27;6.47;;;;;;;23.71;72.93;64452.31;5047155;28;20521;-77
2022/07/01 06:20:56;;;;;;;11.00;6.18;;;;;;;23.72;73.93;64456.50;5045582;28;20197;-78
2022/07/01 06:23:23;;;;;;;12.57;7.50;;;;;;;23.65;75.68;64448.63;5048016;28;20264;-78
2022/07/01 06:25:51;;;;;;;8.88;7.13;;;;;;;23.80;74.70;64466.94;5047878;28;20202;-78
2022/07/01 06:28:18;;;;;;;9.48;6.00;;;;;;;23.92;74.76;64479.47;5051361;28;20237;-78
2022/07/01 06:30:45;;;;;;;9.65;6.25;;;;;;;23.92;73.11;64476.88;5045882;28;20471;-78
2022/07/01 06:33:14;;;;;;;7.55;5.25;;;;;;;23.91;77.40;64476.38;5038709;28;20208;-78
2022/07/01 06:35:41;;;;;;;9.52;6.55;;;;;;;23.97;73.28;64485.25;5048977;28;20301;-78
2022/07/01 06:38:08;;;;;;;9.73;5.65;;;;;;;24.08;70.56;64496.25;5048599;28;20217;-78
2022/07/01 06:40:35;;;;;;;8.13;6.72;;;;;;;24.36;67.80;64525.03;5040593;28;20220;-76
2022/07/01 06:43:04;;;;;;;14.57;6.95;;;;;;;24.57;66.32;64552.25;5041414;28;20267;-75
2022/07/01 06:45:31;;;;;;;7.65;5.70;;;;;;;24.39;66.22;64528.19;5043811;28;20212;-75
2022/07/01 06:47:58;;;;;;;11.63;5.43;;;;;;;24.35;66.30;64526.59;5053695;28;20298;-77
2022/07/01 06:50:25;;;;;;;12.20;6.30;;;;;;;24.49;66.63;64538.66;5054746;28;20264;-77
2022/07/01 06:52:52;;;;;;;9.63;5.32;;;;;;;24.36;65.64;64522.97;5052682;28;20217;-77
2022/07/01 06:55:19;;;;;;;5.85;5.32;;;;;;;24.28;66.10;64517.19;5050230;28;20201;-78
2022/07/01 06:57:46;;;;;;;8.48;5.50;;;;;;;24.45;66.08;64531.88;5052653;28;20221;-78
2022/07/01 07:00:15;;;;;;;6.55;5.97;;;;;;;24.71;64.77;64564.31;5053055;28;20319;-78
2022/07/01 07:02:42;;;;;;;12.13;5.80;;;;;;;24.96;63.15;64585.28;5048869;28;20245;-76
2022/07/01 07:05:10;;;;;;;9.82;5.70;;;;;;;24.88;63.01;64579.53;5047343;28;20240;-77
2022/07/01 07:07:37;;;;;;;11.23;5.47;;;;;;;24.65;63.67;64555.41;5047595;28;20284;-78
2022/07/01 07:10:05;;;;;;;9.60;6.15;;;;;;;24.80;64.52;64569.06;5047214;28;20205;-78
2022/07/01 07:12:32;;;;;;;8.43;5.85;;;;;;;24.74;63.83;64562.25;5047996;28;20280;-77
2022/07/01 07:14:59;;;;;;;5.28;4.85;;;;;;;24.96;63.86;64587.91;5047030;28;20327;-78
2022/07/01 07:17:28;;;;;;;12.27;5.72;;;;;;;25.20;63.51;64607.28;5047507;28;20296;-78
2022/07/01 07:23:17;;;;;;;5.75;5.25;;;;;;;25.49;61.64;64635.59;5027178;28;20385;-77
2022/07/01 07:25:45;;;;;;;9.50;6.22;;;;;;;25.75;61.49;64670.16;5026964;28;20198;-77
2022/07/01 07:28:13;;;;;;;6.13;5.47;;;;;;;26.07;61.67;64701.66;5027984;28;20309;-77
2022/07/01 07:30:40;;;;;;;15.95;6.35;;;;;;;25.99;61.51;64697.91;5027089;28;20202;-77
2022/07/01 07:33:08;;;;;;;10.50;6.00;;;;;;;25.83;63.05;64678.56;5027149;28;20238;-76
2022/07/01 07:35:35;;;;;;;7.75;5.20;;;;;;;26.02;62.54;64701.59;5026800;28;20205;-78
2022/07/01 07:38:01;;;;;;;6.40;5.40;;;;;;;25.73;61.80;64673.28;5026895;28;20518;-80
2022/07/01 07:40:28;;;;;;;6.40;5.72;;;;;;;25.70;64.96;64667.53;5026277;28;20198;-78
2022/07/01 07:42:55;;;;;;;8.52;5.90;;;;;;;25.80;61.39;64675.41;5029999;28;20264;-78
2022/07/01 07:45:22;;;;;;;9.50;5.88;;;;;;;25.82;61.64;64672.28;5028869;28;20186;-77
2022/07/01 07:47:50;;;;;;;9.98;5.93;;;;;;;26.09;60.54;64708.94;5031027;28;20218;-77
2022/07/01 07:50:19;;;;;;;6.93;5.95;;;;;;;25.94;61.88;64685.38;5032030;28;20198;-77
2022/07/01 07:52:46;;;;;;;7.70;5.47;;;;;;;25.95;60.82;64686.44;5030670;28;20222;-79
2022/07/01 07:55:13;;;;;;;13.40;6.30;;;;;;;26.07;64.10;64701.66;5028231;28;20228;-77
2022/07/01 07:57:41;;;;;;;7.32;5.72;;;;;;;26.18;62.33;64718.38;5031491;28;20222;-77
2022/07/01 08:00:10;;;;;;;7.70;5.53;;;;;;;26.05;60.40;64696.94;5030700;28;20198;-77
2022/07/01 08:02:37;;;;;;;6.70;5.65;;;;;;;26.09;63.29;64706.34;5030115;28;20225;-77
2022/07/01 08:05:04;;;;;;;7.57;5.68;;;;;;;25.84;61.64;64677.50;5030310;28;20198;-77
2022/07/01 08:07:35;;;;;;;6.75;6.10;;;;;;;25.87;62.38;64683.25;5027202;28;20218;-78
2022/07/01 08:10:02;;;;;;;8.07;5.80;;;;;;;26.12;62.63;64711.59;5026733;28;20252;-76
2022/07/01 08:12:29;;;;;;;6.32;5.72;;;;;;;26.35;60.60;64735.16;5026903;28;20218;-77
2022/07/01 08:14:56;;;;;;;8.70;6.10;;;;;;;26.51;61.71;64755.06;5026721;28;20206;-77
2022/07/01 08:17:23;;;;;;;7.53;6.63;;;;;;;26.68;59.64;64767.69;5026228;28;20232;-77
2022/07/01 08:19:50;;;;;;;8.55;6.57;;;;;;;26.71;57.70;64770.34;5029478;28;20471;-78
2022/07/01 08:22:17;;;;;;;11.45;6.78;;;;;;;26.89;58.85;64784.50;5044451;28;20256;-80
2022/07/01 08:24:46;;;;;;;13.25;6.57;;;;;;;27.11;58.25;64815.41;5046574;28;20325;-78
2022/07/01 08:27:13;;;;;;;8.43;6.35;;;;;;;27.30;58.16;64832.75;5045576;28;20225;-78
2022/07/01 08:29:40;;;;;;;11.15;6.45;;;;;;;27.55;58.41;64861.09;5045839;28;20229;-78
2022/07/01 08:32:08;;;;;;;9.85;6.88;;;;;;;27.74;57.62;64873.19;5045721;28;20219;-78
2022/07/01 08:34:36;;;;;;;7.20;6.50;;;;;;;27.86;54.69;64891.00;5046949;28;20197;-78
2022/07/01 08:37:06;;;;;;;11.27;6.32;;;;;;;27.97;55.26;64899.44;5047299;28;20208;-78
2022/07/01 08:39:33;;;;;;;9.57;7.03;;;;;;;28.13;56.25;64921.97;5045954;28;20226;-78
2022/07/01 08:42:01;;;;;;;6.80;6.20;;;;;;;28.11;53.63;64919.38;5045405;28;20207;-79
2022/07/01 08:44:28;;;;;;;11.25;6.72;;;;;;;28.14;54.73;64922.50;5045411;28;20185;-77
2022/07/01 08:46:55;;;;;;;10.45;6.10;;;;;;;28.14;53.10;64917.28;5044724;28;20346;-78
2022/07/01 08:49:23;;;;;;;10.57;6.35;;;;;;;28.07;54.13;64907.84;5044740;28;20252;-77
2022/07/01 08:51:50;;;;;;;9.43;6.13;;;;;;;28.07;53.91;64910.47;5044243;28;20208;-76
2022/07/01 08:54:17;;;;;;;10.45;6.63;;;;;;;27.92;54.56;64899.94;5043982;28;20257;-77
2022/07/01 08:56:45;;;;;;;8.15;6.18;;;;;;;28.08;52.79;64913.59;5044476;28;20222;-79
2022/07/01 08:59:23;;;;;;;11.23;5.95;;;;;;;28.24;52.67;64930.91;5044515;28;20198;-79
2022/07/01 09:01:57;;;;;;;10.02;5.80;;;;;;;28.28;52.50;64935.13;5044850;28;20216;-78
2022/07/01 09:04:24;;;;;;;8.70;6.13;;;;;;;28.32;50.14;64939.31;5046845;28;20186;-78
2022/07/01 09:06:51;;;;;;;7.22;6.07;;;;;;;28.47;51.33;64959.78;5044355;28;20193;-80
2022/07/01 09:09:20;;;;;;;9.70;6.25;;;;;;;28.73;49.92;64981.34;5029384;28;20248;-78
2022/07/01 09:11:53;;;;;;;10.13;6.10;;;;;;;28.50;50.08;64955.06;5035652;28;20524;-77
2022/07/01 09:14:22;;;;;;;9.45;6.28;;;;;;;28.38;49.72;64945.09;5024215;28;20187;-77
2022/07/01 09:16:51;;;;;;;11.63;6.20;;;;;;;28.16;50.13;64919.88;5024143;28;20202;-77
2022/07/01 09:19:20;;;;;;;8.75;6.60;;;;;;;28.16;50.23;64924.63;5024293;28;20278;-77
2022/07/01 09:21:50;;;;;;;6.55;5.82;;;;;;;28.36;50.19;64938.28;5029767;28;20441;-77
2022/07/01 09:24:29;;;;;;;9.15;6.57;;;;;;;28.30;49.00;64934.09;5030206;28;20198;-78
2022/07/01 09:26:58;;;;;;;13.18;5.97;;;;;;;28.33;47.85;64939.84;5024791;28;20198;-77
2022/07/01 09:29:34;;;;;;;9.43;6.47;;;;;;;28.37;48.45;64949.81;5033224;28;20552;-78
2022/07/01 09:32:05;;;;;;;7.88;4.85;;;;;;;28.68;50.44;64976.63;5034484;28;20193;-77
2022/07/01 09:34:41;;;;;;;6.40;4.55;;;;;;;28.62;43.05;64969.78;5042293;28;20205;-78
2022/07/01 09:37:08;;;;;;;4.30;4.00;;;;;;;28.89;44.63;64996.03;5040691;28;20236;-78
2022/07/01 09:39:44;;;;;;;4.60;4.20;;;;;;;29.15;45.32;65023.38;5043473;28;20205;-77
2022/07/01 09:42:11;;;;;;;5.60;5.00;;;;;;;29.24;43.63;65034.94;5040664;28;20224;-78
2022/07/01 09:44:54;;;;;;;4.07;3.72;;;;;;;29.24;40.07;65037.56;5043478;28;20898;-77
2022/07/01 09:47:23;;;;;;;6.90;4.35;;;;;;;29.34;38.69;65042.81;5040194;28;20224;-78
2022/07/01 09:49:51;;;;;;;3.88;3.63;;;;;;;29.42;36.78;65054.38;5039854;28;20236;-77
2022/07/01 09:52:18;;;;;;;3.13;3.03;;;;;;;29.45;35.29;65059.63;5038074;28;20225;-77
2022/07/01 09:54:48;;;;;;;4.72;4.28;;;;;;;29.66;37.17;65081.69;5030739;28;20202;-79
2022/07/01 09:57:15;;;;;;;3.85;3.55;;;;;;;29.91;37.85;65108.00;5025708;28;20226;-77
2022/07/01 09:59:44;;;;;;;11.38;6.60;;;;;;;30.05;40.87;65114.84;5040610;28;20204;-77
2022/07/01 10:02:13;;;;;;;6.53;4.85;;;;;;;30.11;40.83;65121.16;5036552;28;20213;-78
2022/07/01 10:04:43;;;;;;;7.32;4.40;;;;;;;30.17;42.84;65127.44;5024711;28;20217;-78
2022/07/01 10:07:28;;;;;;;8.18;4.10;;;;;;;30.39;43.83;65158.47;5036188;28;20214;-79
2022/07/01 10:10:10;;;;;;;6.07;4.28;;;;;;;30.49;40.91;65165.84;5038601;28;20221;-78
2022/07/01 10:12:41;;;;;;;4.80;4.40;;;;;;;30.50;39.00;65170.06;5038069;28;20272;-79
2022/07/01 10:15:11;;;;;;;6.20;4.05;;;;;;;30.55;39.25;65175.31;5047293;28;20491;-77
2022/07/01 10:17:45;;;;;;;4.28;3.97;;;;;;;30.51;36.23;65167.97;5036784;28;20296;-78
2022/07/01 10:20:15;;;;;;;4.15;3.88;;;;;;;30.52;36.16;65169.53;5046061;28;20193;-78
2022/07/01 10:22:43;;;;;;;7.90;4.03;;;;;;;30.67;38.72;65184.78;5034456;28;20260;-79
2022/07/01 10:25:36;;;;;;;4.05;3.47;;;;;;;30.72;35.92;65187.41;5044833;28;20190;-79
2022/07/01 10:28:15;;;;;;;3.72;3.42;;;;;;;30.83;35.49;65201.63;5047064;28;20213;-77
2022/07/01 10:30:53;;;;;;;3.60;3.40;;;;;;;30.67;31.92;65184.25;5045108;28;20252;-80
2022/07/01 10:33:41;;;;;;;3.80;3.50;;;;;;;30.65;33.80;65184.78;5044367;28;20591;-80
2022/07/01 10:36:11;;;;;;;3.95;3.55;;;;;;;30.86;35.88;65204.78;5042574;28;20194;-79
2022/07/01 10:39:10;;;;;;;4.15;3.95;;;;;;;31.01;33.70;65222.66;5044163;28;20224;-77
2022/07/01 10:41:39;;;;;;;4.28;3.92;;;;;;;31.01;33.80;65222.66;5041656;28;20194;-78
2022/07/01 10:44:08;;;;;;;3.60;3.40;;;;;;;31.11;34.36;65227.91;5042772;28;20389;-74
2022/07/01 10:46:43;;;;;;;5.32;3.80;;;;;;;31.19;35.69;65238.97;5028504;28;20237;-76
2022/07/01 10:49:13;;;;;;;4.80;4.13;;;;;;;31.15;36.05;65240.03;5031933;28;20225;-75
2022/07/01 10:51:47;;;;;;;4.88;4.47;;;;;;;31.06;35.89;65225.28;5042016;28;20236;-76
2022/07/01 10:54:14;;;;;;;7.65;4.20;;;;;;;31.13;36.95;65235.81;5035795;28;20186;-77
2022/07/01 10:56:42;;;;;;;4.65;3.95;;;;;;;30.87;34.27;65203.22;5034141;28;20221;-77
2022/07/01 10:59:09;;;;;;;6.38;4.00;;;;;;;31.03;35.94;65220.03;5039896;28;20209;-78
2022/07/01 11:01:37;;;;;;;4.35;3.85;;;;;;;31.10;33.76;65230.03;5038243;28;20380;-75
2022/07/01 11:04:04;;;;;;;4.03;3.83;;;;;;;31.03;34.72;65225.28;5038073;28;20275;-78
2022/07/01 11:06:38;;;;;;;6.30;4.43;;;;;;;31.22;38.61;65242.66;5038437;28;20436;-78
2022/07/01 11:09:05;;;;;;;5.30;4.65;;;;;;;31.09;32.91;65225.81;5036726;28;20214;-76
2022/07/01 11:11:34;;;;;;;4.32;3.60;;;;;;;31.25;36.87;65245.81;5038955;28;20521;-78
2022/07/01 11:14:01;;;;;;;6.53;3.97;;;;;;;31.50;35.72;65268.97;5036412;28;20234;-79
2022/07/01 11:16:30;;;;;;;4.25;3.95;;;;;;;31.69;35.51;65288.97;5035153;28;20274;-77
2022/07/01 11:18:58;;;;;;;4.25;3.88;;;;;;;31.72;35.94;65291.59;5034082;28;20599;-77
2022/07/01 11:21:28;;;;;;;3.80;3.60;;;;;;;31.91;34.44;65317.41;5038690;28;20216;-78
2022/07/01 11:23:57;;;;;;;4.32;3.88;;;;;;;31.78;31.11;65297.91;5038436;28;20550;-77
2022/07/01 11:26:25;;;;;;;7.35;4.07;;;;;;;31.81;31.97;65306.88;5036506;28;20245;-78
2022/07/01 11:28:52;;;;;;;4.38;3.90;;;;;;;31.79;37.67;65304.25;5040648;28;20214;-77
2022/07/01 11:31:50;;;;;;;3.70;3.50;;;;;;;31.81;33.45;65304.22;5042028;28;20252;-78
2022/07/01 11:34:17;;;;;;;3.72;3.50;;;;;;;32.13;34.68;65342.69;5038338;28;20411;-77
2022/07/01 11:39:33;;;;;;;4.35;4.05;;;;;;;32.47;33.17;65371.13;5034697;28;20512;-77
2022/07/01 11:42:03;;;;;;;4.57;4.22;;;;;;;32.67;33.28;65394.81;5035935;28;20286;-79
2022/07/01 11:44:36;;;;;;;5.53;3.90;;;;;;;32.79;32.93;65409.56;5035154;28;20191;-78
2022/07/01 11:47:04;;;;;;;3.92;3.40;;;;;;;33.00;33.84;65431.19;5036932;28;20201;-77
2022/07/01 11:49:31;;;;;;;5.22;4.10;;;;;;;33.18;31.25;65453.31;5033882;28;20526;-77